Time;durP1;ratioP1;P1;durP2;ratioP2;P2;SDS_P1;SDS_P2;PMS_P1;PMS_P2;Temp;Humidity;BMP_temperature;BMP_pressure;BME280_temperature;BME280_humidity;BME280_pressure;Samples;Min_cycle;Max_cycle;Signal;HPM_P1;HPM_P2
2023/10/22 00:01:32;;;;;;;2.60;2.23;;;;;;;14.51;97.93;96549.50;6269127;28;20233;-56
2023/10/22 00:04:34;;;;;;;2.87;2.10;;;;;;;14.46;96.90;96557.59;6271212;28;20368;-57
2023/10/22 00:07:37;;;;;;;3.67;2.20;;;;;;;14.42;97.74;96556.59;6274036;28;20309;-57
2023/10/22 00:10:39;;;;;;;2.30;1.93;;;;;;;14.33;99.24;96569.06;6273361;28;20238;-57
2023/10/22 00:13:41;;;;;;;3.27;1.97;;;;;;;14.13;100.00;96562.16;6269474;28;20230;-56
2023/10/22 00:16:44;;;;;;;2.93;1.87;;;;;;;14.26;95.75;96577.47;6270524;28;20229;-57
2023/10/22 00:19:46;;;;;;;2.10;1.80;;;;;;;14.22;96.19;96570.31;6271405;28;20229;-57
2023/10/22 00:22:49;;;;;;;2.20;2.00;;;;;;;14.23;94.51;96564.66;6269717;28;20727;-57
2023/10/22 00:25:51;;;;;;;2.10;1.93;;;;;;;14.57;88.87;96571.66;6273996;28;20226;-57
2023/10/22 00:28:53;;;;;;;1.70;1.40;;;;;;;14.52;90.03;96583.25;6269050;28;20462;-57
2023/10/22 00:31:56;;;;;;;1.40;1.30;;;;;;;14.59;87.87;96585.56;6269349;28;20241;-56
2023/10/22 00:34:58;;;;;;;1.73;1.60;;;;;;;14.57;88.30;96582.38;6258203;28;20222;-57
2023/10/22 00:38:00;;;;;;;2.13;1.50;;;;;;;14.58;87.99;96579.41;6235551;28;20234;-56
2023/10/22 00:41:02;;;;;;;4.00;1.63;;;;;;;14.54;88.49;96578.41;6257072;28;20222;-55
2023/10/22 00:44:05;;;;;;;1.30;1.20;;;;;;;14.53;88.85;96584.03;6273273;28;20214;-57
2023/10/22 00:47:15;;;;;;;1.60;1.50;;;;;;;14.53;87.49;96590.22;6267797;28;20214;-57
2023/10/22 00:50:18;;;;;;;1.87;1.40;;;;;;;14.53;87.22;96592.06;6250019;28;20329;-57
2023/10/22 00:53:21;;;;;;;1.50;1.20;;;;;;;14.46;85.63;96560.28;6268281;28;20321;-55
2023/10/22 00:56:23;;;;;;;1.87;1.20;;;;;;;14.52;86.70;96580.56;6275853;28;20271;-57
2023/10/22 00:59:25;;;;;;;1.50;1.40;;;;;;;14.42;87.76;96584.19;6272596;28;20245;-57
2023/10/22 01:02:28;;;;;;;2.87;1.33;;;;;;;14.46;87.03;96592.44;6268677;28;20233;-57
2023/10/22 01:05:32;;;;;;;3.43;1.30;;;;;;;14.53;85.82;96582.19;6269735;28;20238;-57
2023/10/22 01:08:36;;;;;;;2.70;1.20;;;;;;;14.61;84.61;96586.84;6271529;28;20223;-58
2023/10/22 01:12:02;;;;;;;2.50;1.30;;;;;;;14.31;85.89;96561.31;6267992;28;20243;-57
2023/10/22 01:15:09;;;;;;;1.90;1.07;;;;;;;14.55;84.02;96574.63;6250502;28;20227;-56
2023/10/22 01:18:11;;;;;;;1.47;0.83;;;;;;;14.62;83.40;96579.59;6270741;28;20240;-58
2023/10/22 01:21:14;;;;;;;1.73;1.00;;;;;;;14.51;83.97;96591.59;6270355;28;20212;-57
2023/10/22 01:24:17;;;;;;;2.07;1.20;;;;;;;14.35;84.94;96589.13;6269282;28;20631;-57
2023/10/22 01:27:19;;;;;;;1.53;1.17;;;;;;;14.30;84.82;96594.56;6275199;28;20279;-57
2023/10/22 01:30:22;;;;;;;1.07;0.97;;;;;;;14.18;86.15;96604.91;6270235;28;20226;-58
2023/10/22 01:33:24;;;;;;;1.80;1.20;;;;;;;14.13;86.08;96608.47;6270782;28;20246;-58
2023/10/22 01:36:27;;;;;;;1.07;0.90;;;;;;;14.04;86.75;96601.38;6270883;28;20786;-58
2023/10/22 01:39:29;;;;;;;1.63;0.73;;;;;;;13.91;86.93;96594.88;6252903;28;20264;-58
2023/10/22 01:42:32;;;;;;;2.20;0.90;;;;;;;13.94;84.96;96595.09;6258098;28;20363;-58
2023/10/22 01:45:35;;;;;;;0.77;0.77;;;;;;;14.14;82.23;96602.03;6273850;28;20301;-57
2023/10/22 01:48:38;;;;;;;1.43;0.80;;;;;;;14.11;81.74;96610.66;6276700;28;20222;-57
2023/10/22 01:51:40;;;;;;;1.93;0.60;;;;;;;14.06;82.10;96609.94;6276766;28;20317;-57
2023/10/22 01:54:44;;;;;;;1.47;0.87;;;;;;;13.90;81.48;96601.34;6275193;28;20705;-58
2023/10/22 01:57:46;;;;;;;0.97;0.70;;;;;;;13.84;82.05;96624.69;6276182;28;20242;-57
2023/10/22 02:00:48;;;;;;;0.50;0.50;;;;;;;13.81;81.34;96643.22;6256044;28;20228;-56
2023/10/22 02:03:51;;;;;;;1.90;0.90;;;;;;;13.69;81.97;96646.28;6273712;28;20368;-57
2023/10/22 02:06:54;;;;;;;1.30;0.60;;;;;;;13.74;80.61;96643.53;6277594;28;20241;-56
2023/10/22 02:09:56;;;;;;;0.70;0.60;;;;;;;13.74;80.11;96653.47;6272124;28;20218;-57
2023/10/22 02:12:59;;;;;;;0.50;0.50;;;;;;;13.65;81.00;96654.13;6277924;28;20232;-56
2023/10/22 02:16:02;;;;;;;1.00;0.47;;;;;;;13.74;80.19;96664.16;6273859;28;20233;-58
2023/10/22 02:19:09;;;;;;;0.63;0.50;;;;;;;13.59;81.38;96665.16;6259379;28;20941;-58
2023/10/22 02:22:12;;;;;;;0.50;0.50;;;;;;;13.65;79.82;96664.81;6277036;28;20231;-58
2023/10/22 02:25:16;;;;;;;0.90;0.40;;;;;;;13.68;78.91;96668.78;6279787;28;20226;-56
2023/10/22 02:28:19;;;;;;;1.07;0.70;;;;;;;13.66;78.22;96670.97;6282632;28;20234;-57
2023/10/22 02:31:22;;;;;;;1.40;0.67;;;;;;;13.62;79.04;96677.97;6276816;28;21912;-58
2023/10/22 02:34:25;;;;;;;1.20;0.70;;;;;;;13.72;77.67;96685.06;6275019;28;20758;-57
2023/10/22 02:37:27;;;;;;;1.60;0.60;;;;;;;13.54;77.55;96666.00;6277272;28;20266;-57
2023/10/22 02:40:29;;;;;;;1.53;0.70;;;;;;;13.67;77.14;96689.41;6254277;28;20249;-56
2023/10/22 02:43:37;;;;;;;0.67;0.50;;;;;;;13.51;77.99;96679.97;6273804;28;20313;-57
2023/10/22 02:46:45;;;;;;;0.73;0.63;;;;;;;13.73;75.52;96692.03;6271939;28;20313;-57
2023/10/22 02:49:48;;;;;;;0.77;0.77;;;;;;;13.49;77.04;96697.38;6277235;28;20227;-57
2023/10/22 02:52:51;;;;;;;0.57;0.37;;;;;;;13.33;78.45;96712.78;6277316;28;20356;-57
2023/10/22 02:56:03;;;;;;;1.40;0.47;;;;;;;13.22;79.31;96712.09;6273018;28;20231;-58
2023/10/22 02:59:07;;;;;;;1.13;0.50;;;;;;;13.05;80.94;96717.84;6277424;28;20237;-56
2023/10/22 03:02:10;;;;;;;1.53;0.60;;;;;;;13.05;81.63;96727.72;6265114;28;20224;-56
2023/10/22 03:05:12;;;;;;;0.43;0.30;;;;;;;13.02;81.21;96741.66;6269202;28;20230;-57
2023/10/22 03:08:15;;;;;;;1.47;0.60;;;;;;;13.20;79.04;96743.66;6267847;28;20215;-57
2023/10/22 03:11:18;;;;;;;0.60;0.47;;;;;;;13.35;76.49;96756.91;6271881;28;20787;-57
2023/10/22 03:14:21;;;;;;;0.77;0.60;;;;;;;13.18;77.16;96743.13;6275121;28;20729;-58
2023/10/22 03:17:23;;;;;;;0.67;0.60;;;;;;;13.17;77.97;96761.03;6276378;28;20233;-56
2023/10/22 03:20:29;;;;;;;0.73;0.50;;;;;;;13.09;79.85;96756.28;6282205;28;20740;-57
2023/10/22 03:23:32;;;;;;;1.80;0.50;;;;;;;13.14;77.76;96742.88;6274496;28;20237;-57
2023/10/22 03:26:36;;;;;;;0.53;0.40;;;;;;;13.18;77.77;96768.00;6274135;28;20594;-58
2023/10/22 03:29:39;;;;;;;1.07;0.70;;;;;;;13.17;77.32;96771.75;6258793;28;20281;-58
2023/10/22 03:32:41;;;;;;;1.27;0.53;;;;;;;13.24;77.42;96774.13;6272399;28;20352;-58
2023/10/22 03:35:44;;;;;;;0.77;0.57;;;;;;;13.21;77.80;96781.88;6260462;28;20262;-57
2023/10/22 03:38:47;;;;;;;0.30;0.30;;;;;;;13.12;77.29;96774.47;6275768;28;20223;-58
2023/10/22 03:41:51;;;;;;;1.63;0.40;;;;;;;13.17;78.09;96787.78;6273078;28;20226;-58
2023/10/22 03:44:53;;;;;;;0.47;0.40;;;;;;;13.14;76.67;96785.66;6257405;28;20666;-58
2023/10/22 03:47:58;;;;;;;0.40;0.40;;;;;;;13.14;77.06;96776.84;6275803;28;20207;-57
2023/10/22 03:51:01;;;;;;;1.40;0.60;;;;;;;13.31;75.05;96787.19;6273335;28;20218;-58
2023/10/22 03:54:04;;;;;;;1.93;0.57;;;;;;;13.21;75.38;96780.00;6251739;28;20215;-56
2023/10/22 03:57:06;;;;;;;0.47;0.43;;;;;;;13.18;76.38;96804.63;6247798;28;20211;-58
2023/10/22 04:00:10;;;;;;;0.83;0.40;;;;;;;13.17;75.98;96800.38;6253141;28;20238;-58
2023/10/22 04:03:13;;;;;;;0.50;0.40;;;;;;;13.06;76.72;96812.22;6248537;28;20223;-57
2023/10/22 04:06:16;;;;;;;2.00;0.40;;;;;;;13.22;75.91;96804.91;6248087;28;20238;-58
2023/10/22 04:09:19;;;;;;;1.90;0.50;;;;;;;13.45;72.65;96812.22;6249021;28;20345;-57
2023/10/22 04:12:22;;;;;;;0.37;0.30;;;;;;;13.40;73.25;96807.69;6246152;28;20249;-58
2023/10/22 04:15:24;;;;;;;0.30;0.30;;;;;;;13.30;73.44;96809.63;6248161;28;20223;-57
2023/10/22 04:18:27;;;;;;;1.03;0.30;;;;;;;13.33;73.20;96820.59;6247663;28;20235;-57
2023/10/22 04:21:30;;;;;;;0.40;0.30;;;;;;;13.40;72.68;96814.94;6250141;28;20223;-56
2023/10/22 04:24:33;;;;;;;0.30;0.30;;;;;;;13.30;72.86;96823.00;6249915;28;20231;-57
2023/10/22 04:27:36;;;;;;;0.30;0.23;;;;;;;13.21;74.65;96832.72;6249827;28;20262;-58
2023/10/22 04:30:39;;;;;;;0.30;0.30;;;;;;;13.22;73.48;96834.31;6246102;28;20231;-57
2023/10/22 04:33:42;;;;;;;1.17;0.40;;;;;;;13.49;71.19;96856.03;6246285;28;20314;-58
2023/10/22 04:36:44;;;;;;;0.73;0.20;;;;;;;13.35;72.66;96849.75;6249768;28;20250;-58
2023/10/22 04:39:46;;;;;;;0.30;0.30;;;;;;;13.35;72.36;96837.16;6246527;28;20699;-57
2023/10/22 04:42:49;;;;;;;1.53;0.30;;;;;;;13.37;72.06;96856.41;6246177;28;21047;-57
2023/10/22 04:45:51;;;;;;;0.33;0.30;;;;;;;13.33;73.29;96866.06;6247369;28;20231;-57
2023/10/22 04:48:54;;;;;;;0.70;0.40;;;;;;;13.22;73.82;96864.53;6247655;28;20301;-57
2023/10/22 04:51:56;;;;;;;0.20;0.20;;;;;;;13.23;74.01;96862.66;6231520;28;20226;-56
2023/10/22 04:54:59;;;;;;;0.40;0.37;;;;;;;13.18;75.05;96890.22;6249486;28;20294;-57
2023/10/22 04:58:02;;;;;;;0.37;0.37;;;;;;;13.29;73.71;96872.25;6244569;28;20219;-57
2023/10/22 05:01:05;;;;;;;0.73;0.33;;;;;;;13.27;73.86;96904.63;6247483;28;20239;-57
2023/10/22 05:04:07;;;;;;;0.40;0.40;;;;;;;13.28;73.76;96897.41;6245139;28;20223;-56
2023/10/22 05:07:09;;;;;;;0.20;0.20;;;;;;;13.40;73.32;96916.59;6243736;28;20407;-58
2023/10/22 05:10:12;;;;;;;1.27;0.37;;;;;;;13.15;74.88;96915.66;6245550;28;20231;-56
2023/10/22 05:13:14;;;;;;;0.20;0.20;;;;;;;13.09;77.18;96924.75;6244820;28;20745;-58
2023/10/22 05:16:17;;;;;;;0.27;0.27;;;;;;;13.15;76.50;96931.69;6252880;28;20219;-57
2023/10/22 05:19:19;;;;;;;0.80;0.37;;;;;;;12.96;77.67;96933.41;6250154;28;20321;-57
2023/10/22 05:22:21;;;;;;;0.30;0.30;;;;;;;12.77;79.65;96930.53;6244718;28;20227;-56
2023/10/22 05:25:24;;;;;;;1.03;0.20;;;;;;;12.89;78.24;96933.69;6256435;28;20229;-58
2023/10/22 05:28:26;;;;;;;0.27;0.23;;;;;;;12.58;79.28;96905.50;6274356;28;20222;-58
2023/10/22 05:31:30;;;;;;;0.77;0.40;;;;;;;12.65;80.11;96932.72;6277960;28;20772;-57
2023/10/22 05:34:32;;;;;;;0.30;0.27;;;;;;;12.85;79.15;96929.94;6255412;28;20245;-58
2023/10/22 05:37:35;;;;;;;0.40;0.40;;;;;;;12.64;80.30;96947.16;6274324;28;20233;-55
2023/10/22 05:40:37;;;;;;;1.50;0.30;;;;;;;12.82;79.17;96932.41;6274792;28;20234;-57
2023/10/22 05:43:39;;;;;;;0.30;0.30;;;;;;;12.61;80.68;96953.03;6272021;28;20218;-58
2023/10/22 05:46:42;;;;;;;0.60;0.53;;;;;;;12.51;81.41;96964.56;6276267;28;20235;-58
2023/10/22 05:49:45;;;;;;;0.70;0.30;;;;;;;12.40;83.16;96973.66;6274312;28;20223;-58
2023/10/22 05:52:50;;;;;;;0.20;0.20;;;;;;;12.47;82.15;96976.06;6274895;28;20265;-56
2023/10/22 05:55:57;;;;;;;0.90;0.33;;;;;;;12.44;83.39;96969.38;6271475;28;20237;-57
2023/10/22 05:59:01;;;;;;;2.07;0.50;;;;;;;12.24;83.38;96954.22;6269893;28;20218;-58
2023/10/22 06:02:03;;;;;;;0.53;0.53;;;;;;;12.37;83.54;96993.72;6271384;28;20321;-57
2023/10/22 06:05:08;;;;;;;1.50;0.50;;;;;;;12.36;82.76;96989.44;6272638;28;20222;-56
2023/10/22 06:08:24;;;;;;;0.50;0.30;;;;;;;12.43;83.14;96999.84;6272373;28;20272;-58
2023/10/22 06:11:26;;;;;;;1.37;0.30;;;;;;;12.31;83.91;96999.31;6265887;28;20218;-58
2023/10/22 06:14:29;;;;;;;0.40;0.30;;;;;;;12.30;84.16;97000.41;6250523;28;20230;-56
2023/10/22 06:17:39;;;;;;;0.50;0.40;;;;;;;12.32;84.38;97000.94;6268653;28;20697;-57
2023/10/22 06:20:45;;;;;;;1.13;0.40;;;;;;;12.33;83.09;97000.66;6269088;28;20223;-58
2023/10/22 06:23:49;;;;;;;0.20;0.20;;;;;;;12.25;83.63;96995.84;6253723;28;20728;-58
2023/10/22 06:26:51;;;;;;;1.07;0.40;;;;;;;12.23;85.08;96997.22;6264000;28;20261;-57
2023/10/22 06:29:54;;;;;;;0.50;0.20;;;;;;;12.26;83.64;96999.31;6268496;28;20226;-57
2023/10/22 06:32:58;;;;;;;0.93;0.40;;;;;;;12.22;83.22;96988.41;6275204;28;20226;-57
2023/10/22 06:36:18;;;;;;;0.80;0.80;;;;;;;12.36;82.54;96993.97;6241219;28;20219;-57
2023/10/22 06:39:21;;;;;;;0.23;0.23;;;;;;;12.59;79.80;97009.41;6270750;28;20265;-57
2023/10/22 06:42:26;;;;;;;0.30;0.30;;;;;;;12.51;81.05;97015.34;6262334;28;20233;-57
2023/10/22 06:45:28;;;;;;;0.30;0.30;;;;;;;12.47;81.80;97018.81;6260494;28;20226;-58
2023/10/22 06:48:30;;;;;;;0.33;0.30;;;;;;;12.53;81.20;97021.19;6264129;28;20287;-58
2023/10/22 06:51:33;;;;;;;0.57;0.50;;;;;;;12.60;80.48;97007.53;6271148;28;20226;-57
2023/10/22 06:54:35;;;;;;;0.40;0.40;;;;;;;12.75;78.15;97015.53;6272176;28;20226;-57
2023/10/22 06:57:38;;;;;;;1.03;0.30;;;;;;;12.72;78.80;97029.44;6269974;28;20222;-58
2023/10/22 07:00:43;;;;;;;1.40;0.57;;;;;;;12.74;79.68;97024.63;6270145;28;20231;-58
2023/10/22 07:03:46;;;;;;;1.27;0.50;;;;;;;12.72;79.68;97018.75;6261749;28;20230;-56
2023/10/22 07:06:49;;;;;;;0.40;0.40;;;;;;;12.82;77.14;97017.94;6262342;28;20236;-56
2023/10/22 07:09:51;;;;;;;1.50;0.80;;;;;;;13.24;74.14;97027.41;6258792;28;20240;-55
2023/10/22 07:12:53;;;;;;;1.20;0.70;;;;;;;13.16;75.85;97040.25;6261859;28;20234;-55
2023/10/22 07:15:56;;;;;;;0.83;0.60;;;;;;;13.26;73.86;97046.69;6271253;28;20325;-55
2023/10/22 07:18:58;;;;;;;1.57;0.60;;;;;;;13.16;76.45;97034.13;6266916;28;20299;-54
2023/10/22 07:22:01;;;;;;;0.73;0.67;;;;;;;13.31;77.42;97054.69;6253328;28;20929;-55
2023/10/22 07:25:04;;;;;;;0.63;0.40;;;;;;;13.00;74.09;97006.63;6221394;28;20232;-55
2023/10/22 07:28:06;;;;;;;1.37;0.50;;;;;;;13.43;74.60;97065.84;6241822;28;20242;-56
2023/10/22 07:31:09;;;;;;;0.30;0.30;;;;;;;13.43;74.82;97069.31;6243407;28;20238;-55
2023/10/22 07:34:11;;;;;;;1.40;0.30;;;;;;;13.40;74.88;97077.91;6243185;28;20734;-56
2023/10/22 07:37:14;;;;;;;0.40;0.40;;;;;;;13.39;75.16;97081.63;6235858;28;20231;-55
2023/10/22 07:40:20;;;;;;;1.17;0.30;;;;;;;13.39;76.07;97107.59;6263205;28;20230;-55
2023/10/22 07:43:24;;;;;;;1.33;0.40;;;;;;;13.31;73.23;97079.56;6262778;28;20284;-55
2023/10/22 07:46:26;;;;;;;0.23;0.23;;;;;;;13.43;73.38;97081.91;6264066;28;20230;-54
2023/10/22 07:49:28;;;;;;;0.20;0.20;;;;;;;13.55;71.72;97101.13;6266528;28;20740;-54
2023/10/22 07:52:40;;;;;;;0.53;0.40;;;;;;;13.46;73.19;97113.47;6264044;28;20230;-56
2023/10/22 07:55:42;;;;;;;0.40;0.20;;;;;;;13.37;71.97;97085.69;6267120;28;20224;-56
2023/10/22 07:58:44;;;;;;;0.43;0.27;;;;;;;13.50;71.61;97113.72;6267495;28;20408;-54
2023/10/22 08:01:47;;;;;;;0.57;0.30;;;;;;;13.61;72.13;97121.44;6270616;28;20331;-54
2023/10/22 08:04:49;;;;;;;1.10;0.30;;;;;;;13.61;71.48;97115.28;6271900;28;20226;-54
2023/10/22 08:07:52;;;;;;;0.73;0.20;;;;;;;13.77;70.71;97126.72;6269819;28;20238;-55
2023/10/22 08:10:58;;;;;;;0.20;0.20;;;;;;;13.67;70.73;97127.56;6267607;28;20226;-56
2023/10/22 08:14:00;;;;;;;2.73;0.37;;;;;;;13.56;72.47;97112.63;6266344;28;20348;-53
2023/10/22 08:17:02;;;;;;;0.40;0.30;;;;;;;13.85;68.84;97137.66;6270410;28;20309;-53
2023/10/22 08:20:05;;;;;;;0.93;0.30;;;;;;;13.64;71.68;97114.72;6263613;28;20368;-56
2023/10/22 08:23:08;;;;;;;2.30;0.40;;;;;;;13.78;72.39;97150.53;6266776;28;20250;-56
2023/10/22 08:26:11;;;;;;;0.27;0.20;;;;;;;13.80;70.89;97143.03;6261739;28;20354;-56
2023/10/22 08:29:13;;;;;;;0.50;0.37;;;;;;;13.92;68.76;97148.84;6267430;28;20233;-57
2023/10/22 08:32:15;;;;;;;0.20;0.20;;;;;;;13.98;69.14;97163.00;6265376;28;20229;-56
2023/10/22 08:35:19;;;;;;;1.03;0.40;;;;;;;14.09;68.19;97169.94;6264048;28;20261;-56
2023/10/22 08:38:21;;;;;;;1.03;0.50;;;;;;;13.94;68.85;97180.72;6271318;28;20762;-57
2023/10/22 08:41:26;;;;;;;0.20;0.20;;;;;;;13.87;70.28;97156.91;6268513;28;20363;-56
2023/10/22 08:44:29;;;;;;;0.30;0.30;;;;;;;13.83;72.05;97177.25;6266984;28;20226;-54
2023/10/22 08:47:34;;;;;;;0.30;0.20;;;;;;;13.74;70.36;97178.91;6267895;28;20359;-55
2023/10/22 08:50:38;;;;;;;0.43;0.20;;;;;;;13.97;69.12;97198.09;6246733;28;20311;-56
2023/10/22 08:53:40;;;;;;;0.37;0.30;;;;;;;13.86;69.60;97187.44;6264014;28;20226;-53
2023/10/22 08:56:43;;;;;;;0.20;0.20;;;;;;;13.83;70.09;97192.53;6264688;28;20240;-56
2023/10/22 08:59:47;;;;;;;0.33;0.30;;;;;;;13.83;70.14;97206.72;6264292;28;20253;-54
2023/10/22 09:02:49;;;;;;;1.90;0.20;;;;;;;13.89;69.72;97202.97;6266703;28;20215;-52
2023/10/22 09:05:53;;;;;;;1.03;0.30;;;;;;;13.91;69.94;97208.03;6264266;28;20237;-55
2023/10/22 09:08:56;;;;;;;0.23;0.23;;;;;;;13.87;72.02;97215.81;6269606;28;20633;-53
2023/10/22 09:11:58;;;;;;;0.47;0.20;;;;;;;13.97;69.64;97225.69;6267880;28;20244;-52
2023/10/22 09:15:01;;;;;;;0.20;0.20;;;;;;;13.94;69.34;97218.22;6269129;28;20233;-53
2023/10/22 09:18:04;;;;;;;0.40;0.30;;;;;;;14.00;68.82;97209.06;6263820;28;20365;-54
2023/10/22 09:21:06;;;;;;;0.20;0.20;;;;;;;13.93;69.77;97214.72;6253207;28;20577;-55
2023/10/22 09:24:10;;;;;;;1.23;0.37;;;;;;;13.94;71.33;97200.25;6267531;28;20218;-55
2023/10/22 09:27:21;;;;;;;0.23;0.20;;;;;;;13.96;70.80;97210.69;6268760;28;20222;-55
2023/10/22 09:30:31;;;;;;;0.57;0.30;;;;;;;14.03;69.01;97218.41;6265022;28;21616;-53
2023/10/22 09:33:34;;;;;;;1.83;0.40;;;;;;;14.01;72.24;97231.28;6270338;28;20268;-55
2023/10/22 09:37:08;;;;;;;0.23;0.23;;;;;;;13.92;75.55;97239.88;6272770;28;20717;-55
2023/10/22 09:40:35;;;;;;;0.67;0.30;;;;;;;11.76;79.19;96953.69;6251609;23;20243;-90
2023/10/22 09:43:40;;;;;;;0.30;0.27;;;;;;;12.53;80.81;97101.34;6208627;28;20235;-89
2023/10/22 09:46:44;;;;;;;0.63;0.33;;;;;;;13.38;79.91;97223.72;6195990;28;20238;-85
2023/10/22 09:50:08;;;;;;;0.87;0.30;;;;;;;13.27;84.02;97200.75;6196071;28;20650;-84
2023/10/22 09:53:15;;;;;;;0.87;0.50;;;;;;;13.37;84.25;97225.59;6221194;23;20233;-51
2023/10/22 09:56:20;;;;;;;0.63;0.40;;;;;;;13.40;85.22;97240.31;6191645;28;20237;-53
2023/10/22 09:59:23;;;;;;;0.53;0.30;;;;;;;13.33;88.58;97248.59;6219717;28;20278;-53
2023/10/22 10:02:26;;;;;;;0.30;0.30;;;;;;;13.23;82.89;97256.66;6200472;28;20239;-53
2023/10/22 10:05:30;;;;;;;0.43;0.30;;;;;;;13.28;85.07;97269.22;6199048;28;20345;-55
2023/10/22 10:08:36;;;;;;;0.50;0.40;;;;;;;13.28;86.74;97269.22;6193124;28;20737;-53
2023/10/22 10:11:40;;;;;;;0.47;0.20;;;;;;;13.26;86.56;97268.69;6188396;28;20286;-50
2023/10/22 10:14:47;;;;;;;1.50;0.47;;;;;;;13.41;77.30;97268.69;6191110;28;20221;-53
2023/10/22 10:17:54;;;;;;;0.73;0.20;;;;;;;13.50;79.54;97264.38;6199687;28;20220;-51
2023/10/22 10:21:44;;;;;;;0.30;0.30;;;;;;;13.72;75.56;97264.06;6192274;28;20266;-53
2023/10/22 10:24:46;;;;;;;0.28;0.20;;;;;;;13.87;76.44;97266.69;6193651;28;20597;-52
2023/10/22 10:27:52;;;;;;;0.63;0.30;;;;;;;13.71;79.61;97249.06;6190222;28;20245;-51
2023/10/22 10:31:27;;;;;;;0.20;0.20;;;;;;;13.78;84.86;97275.53;6194832;28;20225;-52
2023/10/22 10:34:36;;;;;;;0.80;0.33;;;;;;;13.75;80.36;97276.09;6195717;28;20232;-52
2023/10/22 10:37:39;;;;;;;0.30;0.30;;;;;;;13.85;80.96;97270.72;6194995;28;20241;-50
2023/10/22 10:40:43;;;;;;;0.30;0.30;;;;;;;14.01;77.79;97282.97;6192801;28;20826;-52
2023/10/22 10:44:08;;;;;;;0.30;0.20;;;;;;;14.40;70.22;97276.91;6186844;28;20227;-53
2023/10/22 10:47:20;;;;;;;0.53;0.50;;;;;;;14.45;70.23;97271.53;6195672;28;20275;-54
2023/10/22 10:50:22;;;;;;;0.20;0.20;;;;;;;14.49;73.54;97283.34;6194714;28;20237;-53
2023/10/22 10:53:25;;;;;;;0.60;0.33;;;;;;;14.53;68.96;97278.19;6211581;28;20312;-52
2023/10/22 10:56:49;;;;;;;2.90;0.30;;;;;;;14.60;75.71;97290.25;6215243;28;20231;-48
2023/10/22 10:59:52;;;;;;;0.70;0.30;;;;;;;14.66;70.22;97285.66;6215364;28;20224;-48
2023/10/22 11:02:56;;;;;;;0.63;0.30;;;;;;;14.63;70.22;97289.69;6207914;28;20236;-52
2023/10/22 11:05:58;;;;;;;1.33;0.20;;;;;;;14.71;68.02;97301.69;6221044;28;20230;-52
2023/10/22 11:09:00;;;;;;;0.70;0.40;;;;;;;14.77;65.37;97299.78;6220402;28;20626;-52
2023/10/22 11:12:04;;;;;;;0.87;0.30;;;;;;;14.90;68.26;97297.28;6220953;28;20844;-52
2023/10/22 11:15:12;;;;;;;0.43;0.23;;;;;;;14.87;69.10;97300.50;6221352;28;20308;-49
2023/10/22 11:18:14;;;;;;;0.97;0.30;;;;;;;15.08;65.03;97303.06;6218868;28;20220;-50
2023/10/22 11:21:17;;;;;;;0.30;0.23;;;;;;;15.02;68.31;97299.59;6215497;28;20286;-49
2023/10/22 11:24:22;;;;;;;0.80;0.27;;;;;;;15.18;65.05;97303.78;6225115;28;20236;-48
2023/10/22 11:27:24;;;;;;;0.63;0.30;;;;;;;15.22;66.02;97304.84;6223965;28;20227;-50
2023/10/22 11:30:41;;;;;;;0.37;0.20;;;;;;;15.27;66.68;97295.13;6217897;28;20845;-51
2023/10/22 11:33:43;;;;;;;0.20;0.20;;;;;;;15.32;70.82;97297.75;6221857;28;20698;-49
2023/10/22 11:36:46;;;;;;;0.93;0.40;;;;;;;15.37;64.61;97295.88;6225731;28;20584;-50
2023/10/22 11:39:48;;;;;;;0.60;0.40;;;;;;;15.54;59.70;97295.44;6218906;28;20219;-53
2023/10/22 11:42:50;;;;;;;0.80;0.40;;;;;;;15.49;61.74;97301.66;6224822;28;20414;-50
2023/10/22 11:45:56;;;;;;;1.47;0.60;;;;;;;15.59;58.35;97302.63;6225095;28;20377;-51
2023/10/22 11:48:59;;;;;;;1.67;0.33;;;;;;;15.54;58.50;97283.91;6221749;28;20227;-50
2023/10/22 11:52:03;;;;;;;1.73;0.50;;;;;;;15.73;58.93;97293.66;6217084;28;20232;-52
2023/10/22 11:55:56;;;;;;;0.70;0.40;;;;;;;15.66;59.46;97301.25;6228271;28;20227;-53
2023/10/22 11:59:18;;;;;;;1.23;0.60;;;;;;;15.67;60.73;97305.53;6220821;28;20216;-52
2023/10/22 12:02:39;;;;;;;0.80;0.40;;;;;;;15.72;59.45;97307.38;6241694;28;20362;-51
2023/10/22 12:05:41;;;;;;;0.40;0.40;;;;;;;15.79;61.39;97302.47;6221274;28;20234;-51
2023/10/22 12:08:44;;;;;;;0.90;0.40;;;;;;;15.85;58.63;97304.00;6223997;28;20711;-53
2023/10/22 12:11:46;;;;;;;0.40;0.40;;;;;;;15.86;59.68;97302.94;6223865;28;20227;-48
2023/10/22 12:14:49;;;;;;;0.50;0.30;;;;;;;15.86;62.15;97286.81;6227219;28;20232;-50
2023/10/22 12:17:52;;;;;;;0.50;0.40;;;;;;;15.99;62.98;97304.13;6227678;28;20710;-52
2023/10/22 12:20:56;;;;;;;0.80;0.40;;;;;;;16.07;60.89;97295.44;6228976;28;20232;-50
2023/10/22 12:23:58;;;;;;;0.33;0.30;;;;;;;16.36;55.74;97303.44;6227461;28;20242;-52
2023/10/22 12:27:10;;;;;;;2.00;0.40;;;;;;;16.31;55.44;97308.09;6227262;28;20224;-52
2023/10/22 12:30:12;;;;;;;0.30;0.30;;;;;;;16.36;56.00;97319.56;6227428;28;20216;-51
2023/10/22 12:33:15;;;;;;;0.93;0.50;;;;;;;16.50;55.36;97304.34;6228744;28;20291;-51
2023/10/22 12:36:17;;;;;;;0.53;0.40;;;;;;;16.77;51.96;97309.09;6224642;28;20219;-48
2023/10/22 12:39:21;;;;;;;0.60;0.40;;;;;;;16.71;55.46;97306.75;6229598;28;20231;-52
2023/10/22 12:42:24;;;;;;;2.40;0.50;;;;;;;16.73;54.54;97308.06;6224343;28;20243;-50
2023/10/22 12:45:27;;;;;;;1.57;0.40;;;;;;;16.65;55.82;97322.16;6227478;28;20231;-50
2023/10/22 12:48:29;;;;;;;0.77;0.33;;;;;;;16.70;52.90;97322.09;6232588;28;20234;-50
2023/10/22 12:51:32;;;;;;;0.87;0.47;;;;;;;16.60;55.38;97316.03;6233050;28;20231;-48
2023/10/22 12:54:38;;;;;;;0.70;0.50;;;;;;;16.43;53.54;97325.38;6227205;28;20239;-50
2023/10/22 12:57:43;;;;;;;1.53;0.40;;;;;;;16.32;53.79;97328.50;6226691;28;20243;-48
2023/10/22 13:00:48;;;;;;;1.70;0.50;;;;;;;16.32;53.85;97323.13;6227587;28;20220;-48
2023/10/22 13:03:51;;;;;;;0.70;0.30;;;;;;;16.31;56.78;97329.59;6227927;28;20349;-51
2023/10/22 13:06:55;;;;;;;1.13;0.40;;;;;;;16.31;56.38;97334.97;6226343;28;20236;-50
2023/10/22 13:09:59;;;;;;;0.80;0.40;;;;;;;16.25;55.48;97334.19;6226273;28;20263;-51
2023/10/22 13:13:03;;;;;;;0.50;0.30;;;;;;;16.28;57.26;97340.91;6227918;28;20247;-49
2023/10/22 13:16:12;;;;;;;1.20;0.50;;;;;;;16.22;57.99;97346.34;6227442;28;20231;-51
2023/10/22 13:19:15;;;;;;;0.70;0.33;;;;;;;16.23;57.54;97352.50;6225019;28;20231;-49
2023/10/22 13:22:18;;;;;;;1.07;0.40;;;;;;;16.31;58.23;97345.72;6228114;28;20236;-48
2023/10/22 13:25:21;;;;;;;0.70;0.37;;;;;;;16.41;56.28;97359.84;6225198;28;20235;-49
2023/10/22 13:28:23;;;;;;;1.53;0.60;;;;;;;16.36;57.62;97365.28;6227463;28;20604;-50
2023/10/22 13:31:26;;;;;;;1.50;0.50;;;;;;;16.32;57.76;97363.44;6222418;28;20317;-48
2023/10/22 13:34:29;;;;;;;0.50;0.40;;;;;;;16.22;58.65;97357.09;6224232;28;20699;-51
2023/10/22 13:37:31;;;;;;;1.67;0.80;;;;;;;16.21;59.64;97374.31;6225415;28;20266;-50
2023/10/22 13:40:37;;;;;;;1.23;0.47;;;;;;;16.20;60.72;97385.31;6228314;28;20239;-52
2023/10/22 13:43:39;;;;;;;1.37;0.50;;;;;;;16.16;62.34;97378.94;6231078;28;20325;-48
2023/10/22 13:46:41;;;;;;;0.67;0.50;;;;;;;16.12;58.65;97370.63;6232153;28;20677;-52
2023/10/22 13:49:44;;;;;;;1.00;0.60;;;;;;;16.08;59.29;97374.97;6231393;28;20280;-49
2023/10/22 13:52:47;;;;;;;0.47;0.40;;;;;;;15.99;61.33;97377.47;6229205;28;20231;-51
2023/10/22 13:55:59;;;;;;;0.40;0.40;;;;;;;16.00;59.98;97373.69;6230581;28;20263;-50
2023/10/22 13:59:01;;;;;;;0.60;0.40;;;;;;;16.01;61.41;97374.53;6229052;28;20220;-50
2023/10/22 14:02:04;;;;;;;1.03;0.33;;;;;;;15.96;61.66;97375.38;6231641;28;20227;-51
2023/10/22 14:05:10;;;;;;;1.17;0.50;;;;;;;15.97;64.33;97387.72;6230283;28;20216;-48
2023/10/22 14:08:12;;;;;;;0.40;0.40;;;;;;;16.00;65.00;97389.03;6233100;28;20277;-48
2023/10/22 14:11:15;;;;;;;0.70;0.40;;;;;;;15.99;66.22;97382.03;6228502;28;20235;-50
2023/10/22 14:14:17;;;;;;;0.60;0.33;;;;;;;15.94;66.93;97384.78;6232340;28;20326;-51
2023/10/22 14:17:20;;;;;;;0.87;0.40;;;;;;;15.90;64.16;97395.28;6231868;28;20224;-51
2023/10/22 14:20:22;;;;;;;0.70;0.40;;;;;;;15.89;63.88;97387.53;6228989;28;20477;-49
2023/10/22 14:23:24;;;;;;;1.13;0.30;;;;;;;15.83;63.57;97394.03;6230451;28;20230;-52
2023/10/22 14:26:30;;;;;;;0.77;0.50;;;;;;;15.77;60.17;97390.59;6231187;28;20703;-52
2023/10/22 14:29:32;;;;;;;0.73;0.60;;;;;;;15.68;61.80;97393.06;6231229;28;20228;-50